Time;durP1;ratioP1;P1;durP2;ratioP2;P2;SDS_P1;SDS_P2;PMS_P1;PMS_P2;Temp;Humidity;BMP_temperature;BMP_pressure;BME280_temperature;BME280_humidity;BME280_pressure;Samples;Min_cycle;Max_cycle;Signal;HPM_P1;HPM_P2
2024/01/31 00:02:23;;;;;;;28.90;16.60;;;;;;;2.95;64.86;101344.70;102437;1268;138163;-69
2024/01/31 00:04:50;;;;;;;29.80;16.00;;;;;;;2.95;64.67;101342.11;102665;1267;111248;-70
2024/01/31 00:07:17;;;;;;;25.80;17.00;;;;;;;2.97;64.67;101343.87;102583;1272;107361;-72
2024/01/31 00:09:44;;;;;;;25.90;16.60;;;;;;;2.97;64.87;101343.35;102499;1267;137990;-72
2024/01/31 00:12:10;;;;;;;29.20;17.10;;;;;;;2.96;64.99;101342.14;102586;1270;107431;-71
2024/01/31 00:14:38;;;;;;;27.20;16.20;;;;;;;2.94;64.87;101344.34;102608;1267;138111;-71
2024/01/31 00:17:05;;;;;;;33.10;17.10;;;;;;;2.92;64.84;101343.96;102686;1273;111178;-71
2024/01/31 00:19:32;;;;;;;26.70;16.50;;;;;;;2.90;65.12;101346.67;102621;1271;109449;-69
2024/01/31 00:22:00;;;;;;;27.20;17.00;;;;;;;2.87;65.02;101343.70;102444;1268;137902;-70
2024/01/31 00:24:27;;;;;;;26.20;15.80;;;;;;;2.83;65.13;101338.99;102533;1267;107834;-72
2024/01/31 00:26:54;;;;;;;28.30;17.30;;;;;;;2.79;65.34;101340.98;102515;1273;138069;-70
2024/01/31 00:29:21;;;;;;;28.70;17.30;;;;;;;2.74;65.29;101343.83;102585;1268;113408;-70
2024/01/31 00:31:48;;;;;;;30.10;17.10;;;;;;;2.70;65.33;101338.62;102502;1272;107086;-70
2024/01/31 00:34:14;;;;;;;27.70;16.10;;;;;;;2.67;65.65;101338.02;102655;1267;138786;-71
2024/01/31 00:36:41;;;;;;;29.00;15.40;;;;;;;2.67;65.65;101345.05;102477;1270;108684;-70
2024/01/31 00:39:08;;;;;;;27.60;15.70;;;;;;;2.65;65.60;101341.41;102851;1267;138707;-71
2024/01/31 00:41:38;;;;;;;25.70;14.90;;;;;;;2.65;65.92;101343.14;102660;1267;110667;-69
2024/01/31 00:44:05;;;;;;;22.80;14.40;;;;;;;2.67;65.94;101338.36;102679;1267;107870;-71
2024/01/31 00:46:32;;;;;;;24.70;15.40;;;;;;;2.72;65.95;101332.30;102821;1267;138111;-70
2024/01/31 00:48:59;;;;;;;27.00;15.70;;;;;;;2.76;65.93;101327.71;102826;1267;108546;-70
2024/01/31 00:51:26;;;;;;;26.90;15.40;;;;;;;2.77;65.97;101319.48;101852;1267;1002728;-70
2024/01/31 00:53:53;;;;;;;26.90;16.00;;;;;;;2.78;65.95;101319.15;102487;1268;111840;-71
2024/01/31 00:56:19;;;;;;;26.60;16.50;;;;;;;2.78;66.03;101319.67;102425;1267;138155;-69
2024/01/31 00:58:46;;;;;;;26.20;16.40;;;;;;;2.78;66.01;101316.59;102600;1273;97825;-70
2024/01/31 01:01:13;;;;;;;26.20;16.70;;;;;;;2.76;65.91;101317.41;102583;1267;107731;-71
2024/01/31 01:03:40;;;;;;;26.20;16.30;;;;;;;2.73;66.00;101309.98;102797;1267;138739;-71
2024/01/31 01:06:07;;;;;;;27.90;16.20;;;;;;;2.70;66.32;101313.20;102619;1267;112313;-70
2024/01/31 01:08:34;;;;;;;26.00;16.50;;;;;;;2.68;66.30;101311.92;102691;1268;138549;-70
2024/01/31 01:11:01;;;;;;;28.90;16.90;;;;;;;2.65;66.23;101313.77;102587;1267;98506;-70
2024/01/31 01:13:27;;;;;;;25.00;15.40;;;;;;;2.61;66.44;101309.42;102792;1273;107540;-70
2024/01/31 01:15:54;;;;;;;25.40;15.20;;;;;;;2.56;66.46;101307.80;102582;1267;139957;-70
2024/01/31 01:18:21;;;;;;;23.90;15.00;;;;;;;2.53;66.46;101304.84;102844;1267;110969;-71
2024/01/31 01:20:48;;;;;;;25.00;14.60;;;;;;;2.53;66.65;101305.34;102714;1267;139443;-69
2024/01/31 01:23:15;;;;;;;26.10;14.60;;;;;;;2.51;66.82;101305.81;102662;1267;97920;-69
2024/01/31 01:25:42;;;;;;;24.60;14.60;;;;;;;2.52;66.84;101306.35;102640;1270;108469;-69
2024/01/31 01:28:10;;;;;;;24.10;15.10;;;;;;;2.52;66.81;101298.64;102495;1272;137945;-70
2024/01/31 01:30:36;;;;;;;26.50;15.40;;;;;;;2.55;66.90;101298.86;102629;1271;111012;-69
2024/01/31 01:33:03;;;;;;;26.00;15.50;;;;;;;2.56;66.97;101298.70;102515;1267;138364;-70
2024/01/31 01:35:30;;;;;;;25.70;15.40;;;;;;;2.53;66.89;101296.23;102699;1272;97881;-70
2024/01/31 01:37:57;;;;;;;24.40;15.40;;;;;;;2.49;66.98;101295.29;102589;1272;108308;-69
2024/01/31 01:40:24;;;;;;;27.70;16.70;;;;;;;2.43;67.19;101292.11;102526;1272;138970;-69
2024/01/31 01:42:51;;;;;;;23.90;15.60;;;;;;;2.38;67.03;101293.77;102712;1268;111250;-69
2024/01/31 01:45:18;;;;;;;25.80;16.50;;;;;;;2.35;67.33;101289.74;102457;1273;136856;-69
2024/01/31 01:47:50;;;;;;;27.60;15.20;;;;;;;2.29;67.33;101292.03;102652;1273;97899;-69
2024/01/31 01:50:18;;;;;;;24.60;15.20;;;;;;;2.26;67.56;101291.30;102957;1267;107269;-70
2024/01/31 01:52:46;;;;;;;25.20;14.30;;;;;;;2.24;67.88;101289.20;102620;1272;97710;-70
2024/01/31 01:55:13;;;;;;;25.40;14.30;;;;;;;2.22;67.88;101290.70;102986;1267;110684;-68
2024/01/31 01:57:40;;;;;;;20.70;13.80;;;;;;;2.21;67.80;101291.73;102731;1267;138563;-71
2024/01/31 02:00:11;;;;;;;23.60;14.50;;;;;;;2.23;68.05;101287.63;102467;1267;97892;-70
2024/01/31 02:02:38;;;;;;;23.80;14.80;;;;;;;2.24;68.06;101287.30;102464;1270;138476;-70
2024/01/31 02:05:08;;;;;;;25.60;15.20;;;;;;;2.25;68.16;101286.80;102892;1268;97914;-71
2024/01/31 02:07:37;;;;;;;27.00;15.40;;;;;;;2.24;68.12;101289.20;102850;1270;110720;-70
2024/01/31 02:10:04;;;;;;;27.10;15.50;;;;;;;2.23;68.23;101284.55;102508;1267;138075;-71
2024/01/31 02:12:31;;;;;;;25.40;16.40;;;;;;;2.21;68.31;101284.01;102789;1270;98283;-71
2024/01/31 02:14:58;;;;;;;28.90;16.30;;;;;;;2.19;68.42;101281.73;102479;1269;138330;-71
2024/01/31 02:17:25;;;;;;;24.60;14.80;;;;;;;2.16;68.45;101285.97;101821;1267;1002896;-71
2024/01/31 02:19:52;;;;;;;28.00;15.50;;;;;;;2.12;68.78;101283.13;102809;1267;111820;-71
2024/01/31 02:22:20;;;;;;;24.00;15.00;;;;;;;2.08;68.77;101285.48;102420;1273;138787;-70
2024/01/31 02:24:47;;;;;;;23.10;13.60;;;;;;;2.06;68.95;101285.95;102794;1273;97816;-69
2024/01/31 02:27:14;;;;;;;22.30;14.40;;;;;;;2.06;68.86;101287.48;102673;1267;138432;-70
2024/01/31 02:29:41;;;;;;;24.30;13.70;;;;;;;2.11;69.10;101291.00;102801;1267;97744;-71
2024/01/31 02:32:09;;;;;;;24.60;14.90;;;;;;;2.16;69.15;101288.55;102585;1270;111089;-70
2024/01/31 02:34:36;;;;;;;24.20;14.40;;;;;;;2.23;69.15;101289.01;102937;1267;138183;-70
2024/01/31 02:37:03;;;;;;;23.70;14.30;;;;;;;2.27;69.17;101288.57;102618;1270;97047;-70
2024/01/31 02:39:31;;;;;;;23.20;15.30;;;;;;;2.32;69.10;101287.44;102580;1267;137787;-69
2024/01/31 02:41:58;;;;;;;25.40;15.70;;;;;;;2.34;69.11;101286.13;101880;1267;1003660;-70
2024/01/31 02:44:25;;;;;;;26.10;15.50;;;;;;;2.36;69.02;101285.48;102432;1270;141382;-69
2024/01/31 02:46:52;;;;;;;22.50;15.30;;;;;;;2.36;69.10;101282.23;102674;1267;107778;-70
2024/01/31 02:49:19;;;;;;;24.60;15.00;;;;;;;2.36;69.26;101282.22;103171;1267;97795;-70
2024/01/31 02:51:46;;;;;;;25.90;16.10;;;;;;;2.35;69.26;101281.01;102588;1267;138173;-70
2024/01/31 02:54:13;;;;;;;24.70;15.50;;;;;;;2.35;69.28;101281.19;102868;1267;97614;-70
2024/01/31 02:56:39;;;;;;;25.00;15.20;;;;;;;2.36;69.38;101281.38;102425;1267;139195;-71
2024/01/31 02:59:06;;;;;;;24.50;14.90;;;;;;;2.37;69.34;101279.14;102547;1267;108357;-70
2024/01/31 03:01:36;;;;;;;21.90;14.80;;;;;;;2.39;69.48;101276.60;102835;1267;97812;-70
2024/01/31 03:04:03;;;;;;;26.20;15.70;;;;;;;2.40;69.67;101271.64;103467;1267;139445;-71
2024/01/31 03:06:30;;;;;;;26.10;15.80;;;;;;;2.42;69.70;101269.79;102502;1268;97722;-70
2024/01/31 03:08:57;;;;;;;25.70;15.00;;;;;;;2.45;69.61;101270.69;102935;1267;138642;-70
2024/01/31 03:11:24;;;;;;;25.00;14.70;;;;;;;2.47;69.87;101269.69;102539;1270;108256;-70
2024/01/31 03:13:51;;;;;;;23.60;15.40;;;;;;;2.49;69.96;101265.95;102776;1267;98350;-70
2024/01/31 03:16:18;;;;;;;24.40;15.30;;;;;;;2.51;69.92;101267.86;102713;1267;138619;-70
2024/01/31 03:18:45;;;;;;;25.50;15.10;;;;;;;2.51;69.95;101263.08;102651;1267;98520;-70
2024/01/31 03:21:12;;;;;;;24.40;15.40;;;;;;;2.54;70.12;101256.42;103038;1267;138822;-71
2024/01/31 03:23:39;;;;;;;25.50;15.10;;;;;;;2.56;70.17;101254.58;102589;1267;108187;-70
2024/01/31 03:26:06;;;;;;;18.60;12.60;;;;;;;2.62;70.32;101258.10;102720;1267;97062;-70
2024/01/31 03:28:33;;;;;;;24.40;14.80;;;;;;;2.72;70.51;101258.10;102391;1267;137941;-71
2024/01/31 03:31:00;;;;;;;24.90;15.30;;;;;;;2.80;70.45;101252.20;102593;1268;97691;-72
2024/01/31 03:33:27;;;;;;;23.70;15.00;;;;;;;2.88;70.53;101256.29;102477;1266;138397;-71
2024/01/31 03:35:54;;;;;;;23.60;15.50;;;;;;;2.94;70.28;101263.42;102509;1267;108745;-71
2024/01/31 03:38:20;;;;;;;27.40;16.30;;;;;;;2.98;70.20;101261.08;102352;1267;138107;-70
2024/01/31 03:40:47;;;;;;;24.30;15.30;;;;;;;3.01;70.06;101262.31;102561;1267;106663;-69
2024/01/31 03:43:14;;;;;;;23.90;15.30;;;;;;;3.01;70.34;101258.19;102540;1267;97860;-71
2024/01/31 03:45:41;;;;;;;24.10;15.90;;;;;;;3.02;70.29;101263.70;102482;1267;137719;-71
2024/01/31 03:48:09;;;;;;;25.90;15.20;;;;;;;3.00;70.21;101262.48;102526;1267;107717;-71
2024/01/31 03:50:36;;;;;;;22.00;14.60;;;;;;;3.00;70.39;101264.52;102655;1267;138725;-70
2024/01/31 03:53:03;;;;;;;22.70;14.70;;;;;;;3.02;70.43;101258.55;102548;1267;107664;-71
2024/01/31 03:55:32;;;;;;;26.50;14.60;;;;;;;3.07;70.27;101256.58;102568;1267;97838;-71
2024/01/31 03:57:59;;;;;;;24.10;15.00;;;;;;;3.13;70.45;101260.27;102431;1266;138060;-70
2024/01/31 04:00:26;;;;;;;21.80;15.10;;;;;;;3.18;70.44;101253.45;102498;1267;107327;-71
2024/01/31 04:02:53;;;;;;;24.10;15.20;;;;;;;3.26;70.50;101257.18;102451;1267;138137;-71
2024/01/31 04:05:20;;;;;;;24.10;16.30;;;;;;;3.31;70.27;101256.73;102517;1267;108156;-70
2024/01/31 04:07:47;;;;;;;26.00;16.60;;;;;;;3.35;70.12;101261.94;102836;1267;97805;-71
2024/01/31 04:10:15;;;;;;;24.50;15.90;;;;;;;3.38;70.09;101262.81;102542;1267;138887;-71
2024/01/31 04:12:42;;;;;;;24.70;16.70;;;;;;;3.36;70.19;101261.27;102523;1267;109156;-72
2024/01/31 04:15:10;;;;;;;29.70;17.40;;;;;;;3.34;70.19;101263.65;102447;1267;138923;-72
2024/01/31 04:17:37;;;;;;;23.60;15.60;;;;;;;3.31;70.22;101263.95;102516;1269;107931;-70
2024/01/31 04:20:06;;;;;;;24.10;15.60;;;;;;;3.31;70.35;101267.90;102510;1270;97809;-71
2024/01/31 04:22:33;;;;;;;24.00;14.60;;;;;;;3.32;70.62;101263.80;102457;1267;138368;-70
2024/01/31 04:25:00;;;;;;;22.70;14.50;;;;;;;3.37;70.43;101270.38;102547;1267;108292;-70
2024/01/31 04:27:27;;;;;;;23.70;16.00;;;;;;;3.41;70.32;101274.23;102467;1267;138978;-71
2024/01/31 04:29:54;;;;;;;24.30;15.50;;;;;;;3.46;70.47;101271.04;102558;1267;107199;-70
2024/01/31 04:32:20;;;;;;;24.70;16.40;;;;;;;3.48;70.41;101265.55;102456;1270;138876;-69
2024/01/31 04:34:47;;;;;;;24.00;15.90;;;;;;;3.50;70.45;101267.98;102528;1267;111212;-70
2024/01/31 04:37:14;;;;;;;27.30;17.10;;;;;;;3.50;70.39;101264.73;102576;1267;107316;-71
2024/01/31 04:39:41;;;;;;;27.30;17.40;;;;;;;3.49;70.30;101268.84;102397;1268;139488;-70
2024/01/31 04:42:08;;;;;;;27.60;17.50;;;;;;;3.48;70.55;101268.31;102536;1267;108618;-70
2024/01/31 04:44:35;;;;;;;26.80;15.80;;;;;;;3.44;70.53;101274.11;102344;1267;138242;-70
2024/01/31 04:47:02;;;;;;;24.20;15.60;;;;;;;3.43;70.51;101276.85;102563;1267;111906;-70
2024/01/31 04:49:29;;;;;;;24.80;15.70;;;;;;;3.44;70.83;101283.23;102813;1269;107198;-70
2024/01/31 04:51:56;;;;;;;23.10;15.30;;;;;;;3.49;70.90;101281.91;102491;1267;138258;-70
2024/01/31 04:54:24;;;;;;;22.90;15.30;;;;;;;3.53;70.87;101280.05;102526;1267;108496;-71
2024/01/31 04:56:50;;;;;;;24.70;16.00;;;;;;;3.59;70.70;101285.65;102423;1267;139123;-71
2024/01/31 04:59:17;;;;;;;23.50;15.20;;;;;;;3.62;70.72;101281.73;102605;1267;110871;-70
2024/01/31 05:01:44;;;;;;;26.50;17.30;;;;;;;3.64;70.73;101287.10;102431;1270;107253;-70
2024/01/31 05:04:11;;;;;;;27.10;17.50;;;;;;;3.67;70.66;101283.85;102691;1268;137880;-70
2024/01/31 05:06:38;;;;;;;27.00;17.80;;;;;;;3.68;70.67;101282.48;102534;1273;108252;-71
2024/01/31 05:09:06;;;;;;;28.00;17.90;;;;;;;3.68;71.02;101280.25;102289;1272;139513;-71
2024/01/31 05:11:33;;;;;;;26.50;16.90;;;;;;;3.66;70.77;101286.08;102682;1267;111524;-71
2024/01/31 05:14:00;;;;;;;24.50;16.70;;;;;;;3.65;70.96;101286.06;102507;1273;108127;-71
2024/01/31 05:16:27;;;;;;;28.90;17.70;;;;;;;3.66;70.89;101288.83;102383;1273;138992;-71
2024/01/31 05:18:54;;;;;;;24.30;16.50;;;;;;;3.64;70.64;101290.02;102411;1270;108599;-71
2024/01/31 05:21:20;;;;;;;25.60;16.80;;;;;;;3.62;70.93;101289.83;101586;1270;1003032;-71
2024/01/31 05:23:47;;;;;;;26.30;16.70;;;;;;;3.64;71.27;101292.24;102477;1268;110657;-71
2024/01/31 05:26:14;;;;;;;25.30;15.30;;;;;;;3.67;71.36;101290.73;102439;1270;108095;-70
2024/01/31 05:28:43;;;;;;;25.10;15.80;;;;;;;3.71;71.51;101287.85;102503;1267;97800;-71
2024/01/31 05:31:10;;;;;;;24.70;16.30;;;;;;;3.78;71.61;101282.44;102635;1270;108306;-70
2024/01/31 05:33:37;;;;;;;25.40;16.80;;;;;;;3.84;71.65;101280.80;102426;1267;137907;-69
2024/01/31 05:36:05;;;;;;;25.90;16.40;;;;;;;3.90;71.48;101283.61;102529;1267;110804;-71
2024/01/31 05:38:32;;;;;;;27.40;17.30;;;;;;;3.93;71.59;101283.48;102483;1271;138584;-71
2024/01/31 05:40:58;;;;;;;26.60;18.30;;;;;;;3.97;71.43;101288.00;102543;1269;98025;-71
2024/01/31 05:43:25;;;;;;;30.90;17.50;;;;;;;3.98;71.40;101285.44;102519;1271;107681;-71
2024/01/31 05:45:52;;;;;;;28.90;18.20;;;;;;;3.98;71.71;101290.44;102451;1267;138499;-71
2024/01/31 05:48:19;;;;;;;28.40;16.60;;;;;;;3.94;71.80;101285.05;102527;1270;110726;-71
2024/01/31 05:50:46;;;;;;;29.20;16.90;;;;;;;3.97;71.49;101287.50;102369;1267;139739;-70
2024/01/31 05:53:13;;;;;;;38.70;17.50;;;;;;;3.96;71.87;101282.83;102565;1267;98398;-70
2024/01/31 05:55:40;;;;;;;25.50;16.40;;;;;;;3.97;71.87;101279.41;101664;1273;1003277;-70
2024/01/31 05:58:09;;;;;;;25.20;17.20;;;;;;;3.99;71.87;101283.73;102440;1269;138613;-71
2024/01/31 06:00:35;;;;;;;28.30;17.80;;;;;;;4.03;71.90;101282.23;102595;1272;112995;-70
2024/01/31 06:03:02;;;;;;;27.70;17.80;;;;;;;4.07;72.02;101280.88;102767;1267;138397;-71
2024/01/31 06:05:30;;;;;;;28.70;18.40;;;;;;;4.08;71.84;101275.55;102522;1268;98400;-71
2024/01/31 06:07:56;;;;;;;26.50;18.10;;;;;;;4.08;71.98;101276.76;102460;1267;108690;-70
2024/01/31 06:10:24;;;;;;;29.90;18.70;;;;;;;4.07;71.93;101275.71;102592;1267;138290;-70
2024/01/31 06:12:51;;;;;;;28.80;18.70;;;;;;;4.05;71.98;101283.95;102459;1267;110732;-70
2024/01/31 06:15:20;;;;;;;31.60;19.40;;;;;;;4.02;71.90;101283.23;102404;1267;138992;-70
2024/01/31 06:17:47;;;;;;;30.90;18.70;;;;;;;4.00;71.86;101289.42;102436;1268;97815;-70
2024/01/31 06:20:17;;;;;;;27.90;17.10;;;;;;;3.99;72.02;101288.20;102468;1267;109113;-70
2024/01/31 06:22:44;;;;;;;27.00;16.70;;;;;;;3.98;72.16;101293.19;102525;1267;97816;-71
2024/01/31 06:25:11;;;;;;;26.60;17.40;;;;;;;4.01;72.34;101295.11;102539;1267;112165;-70
2024/01/31 06:27:39;;;;;;;31.20;18.60;;;;;;;4.05;72.32;101297.05;102418;1267;138902;-69
2024/01/31 06:30:08;;;;;;;30.10;18.40;;;;;;;4.10;72.57;101296.39;102504;1272;99919;-70
2024/01/31 06:32:47;;;;;;;30.30;19.10;;;;;;;4.17;72.65;101297.87;102535;1267;138302;-70
2024/01/31 06:35:14;;;;;;;32.20;19.20;;;;;;;4.21;72.52;101300.14;102513;1267;98002;-71
2024/01/31 06:37:41;;;;;;;29.30;18.90;;;;;;;4.21;72.81;101298.59;102514;1270;112179;-71
2024/01/31 06:40:10;;;;;;;30.50;19.90;;;;;;;4.19;72.68;101299.61;102367;1270;138225;-70
2024/01/31 06:42:37;;;;;;;33.10;19.90;;;;;;;4.18;72.88;101300.63;102463;1267;98180;-70
2024/01/31 06:45:05;;;;;;;35.00;19.60;;;;;;;4.16;72.89;101296.48;102337;1267;137732;-71
2024/01/31 06:47:32;;;;;;;29.40;19.00;;;;;;;4.14;73.04;101303.87;102936;1271;97905;-70
2024/01/31 06:49:59;;;;;;;32.10;17.30;;;;;;;4.13;73.20;101304.89;102501;1267;110934;-71
2024/01/31 06:52:26;;;;;;;31.40;17.20;;;;;;;4.13;73.44;101304.02;102314;1272;139035;-70
2024/01/31 06:54:53;;;;;;;32.80;19.00;;;;;;;4.19;73.64;101302.36;102512;1267;97697;-69
2024/01/31 06:57:20;;;;;;;34.50;19.00;;;;;;;4.24;73.63;101309.29;102357;1267;138261;-70
2024/01/31 06:59:47;;;;;;;31.40;19.70;;;;;;;4.26;73.64;101312.92;102494;1267;97691;-70
2024/01/31 07:02:13;;;;;;;37.50;20.30;;;;;;;4.30;73.79;101309.86;102410;1273;111531;-69
2024/01/31 07:04:40;;;;;;;35.70;21.00;;;;;;;4.33;73.97;101308.70;101740;1267;1003829;-70
2024/01/31 07:07:07;;;;;;;35.20;21.10;;;;;;;4.35;73.98;101305.97;102429;1267;99268;-70
2024/01/31 07:09:36;;;;;;;33.30;21.10;;;;;;;4.41;73.85;101309.81;102419;1267;138446;-70
2024/01/31 07:12:03;;;;;;;34.60;20.70;;;;;;;4.45;74.05;101303.65;102509;1267;98290;-70
2024/01/31 07:14:29;;;;;;;37.60;20.80;;;;;;;4.49;74.14;101300.77;102415;1272;138724;-70
2024/01/31 07:16:56;;;;;;;33.60;21.00;;;;;;;4.51;74.05;101300.80;102542;1267;107669;-70
2024/01/31 07:19:23;;;;;;;40.50;21.90;;;;;;;4.49;74.09;101293.02;102431;1267;97939;-70
2024/01/31 07:21:50;;;;;;;34.20;20.40;;;;;;;4.49;74.09;101294.92;101664;1267;1005716;-70
2024/01/31 07:24:18;;;;;;;32.90;19.10;;;;;;;4.49;74.26;101291.30;102498;1267;97819;-70
2024/01/31 07:26:55;;;;;;;32.90;18.90;;;;;;;4.53;74.50;101292.89;102419;1267;138657;-68
2024/01/31 07:29:21;;;;;;;28.10;18.40;;;;;;;4.56;74.28;101296.02;102479;1267;107053;-71
2024/01/31 07:31:48;;;;;;;31.50;18.80;;;;;;;4.60;74.13;101293.80;102578;1267;97810;-68
2024/01/31 07:34:15;;;;;;;32.10;18.90;;;;;;;4.64;74.06;101294.70;102371;1270;140125;-68
2024/01/31 07:36:42;;;;;;;33.50;20.30;;;;;;;4.68;74.24;101297.85;102439;1270;97737;-69
2024/01/31 07:39:09;;;;;;;32.10;20.00;;;;;;;4.70;73.84;101300.98;102436;1267;137746;-69
2024/01/31 07:41:36;;;;;;;29.80;19.80;;;;;;;4.69;73.76;101303.89;102465;1267;107436;-70
2024/01/31 07:44:04;;;;;;;28.10;20.00;;;;;;;4.68;73.86;101306.63;102538;1267;97851;-70
2024/01/31 07:46:31;;;;;;;32.60;20.80;;;;;;;4.70;73.93;101304.59;102624;1267;137721;-69
2024/01/31 07:48:58;;;;;;;32.00;20.50;;;;;;;4.71;73.90;101308.89;102582;1267;97713;-69
2024/01/31 07:51:24;;;;;;;29.20;18.80;;;;;;;4.70;73.70;101300.10;102385;1270;139499;-68
2024/01/31 07:53:51;;;;;;;26.70;18.20;;;;;;;4.75;73.88;101303.41;102531;1267;106923;-71
2024/01/31 07:56:18;;;;;;;30.60;18.70;;;;;;;4.81;73.80;101304.15;102569;1267;97805;-70
2024/01/31 07:58:45;;;;;;;29.90;19.90;;;;;;;4.86;73.57;101310.92;102490;1267;109028;-71
2024/01/31 08:01:12;;;;;;;33.00;20.90;;;;;;;4.88;73.52;101312.14;102518;1267;97799;-72
2024/01/31 08:03:43;;;;;;;35.30;20.80;;;;;;;4.92;73.53;101315.96;102448;1267;137849;-64
2024/01/31 08:06:10;;;;;;;34.00;21.80;;;;;;;4.94;73.32;101313.90;102481;1267;107651;-71
2024/01/31 08:08:37;;;;;;;33.20;20.60;;;;;;;4.92;73.38;101313.38;102674;1267;138575;-70
2024/01/31 08:11:06;;;;;;;33.30;21.50;;;;;;;4.93;73.28;101318.73;102525;1267;108153;-70
2024/01/31 08:13:34;;;;;;;34.60;21.20;;;;;;;4.94;73.34;101317.86;102557;1270;97936;-70
2024/01/31 08:16:01;;;;;;;32.80;21.90;;;;;;;4.96;73.37;101320.98;102554;1267;138748;-70
2024/01/31 08:18:28;;;;;;;34.50;20.50;;;;;;;4.95;73.34;101325.80;102463;1270;108312;-69
2024/01/31 08:20:55;;;;;;;35.80;21.10;;;;;;;4.96;73.45;101328.05;102463;1267;138898;-68
2024/01/31 08:23:23;;;;;;;35.60;21.80;;;;;;;4.95;73.39;101327.52;101027;1267;1003836;-68
2024/01/31 08:25:50;;;;;;;30.60;20.80;;;;;;;4.97;73.41;101328.23;102522;1267;97752;-72
2024/01/31 08:28:17;;;;;;;32.30;21.70;;;;;;;4.97;73.45;101327.71;102356;1270;138978;-70
2024/01/31 08:30:44;;;;;;;34.10;21.40;;;;;;;4.98;73.63;101326.85;102490;1267;108225;-71
2024/01/31 08:33:11;;;;;;;35.50;21.10;;;;;;;4.99;73.59;101326.86;102432;1267;138622;-72
2024/01/31 08:35:39;;;;;;;35.70;21.10;;;;;;;5.00;73.80;101331.70;102435;1267;108300;-71
2024/01/31 08:38:06;;;;;;;30.50;20.70;;;;;;;5.02;73.76;101329.48;102491;1267;97821;-68
2024/01/31 08:40:33;;;;;;;34.30;20.60;;;;;;;5.05;73.85;101327.95;102349;1267;138565;-68
2024/01/31 08:43:00;;;;;;;29.70;20.70;;;;;;;5.05;73.83;101329.17;101764;1271;1002961;-67
2024/01/31 08:45:27;;;;;;;34.50;21.20;;;;;;;5.07;73.74;101329.35;102476;1267;138895;-69
2024/01/31 08:47:54;;;;;;;33.00;22.10;;;;;;;5.11;74.03;101333.52;102544;1267;107770;-69
2024/01/31 08:50:21;;;;;;;37.50;21.50;;;;;;;5.14;73.87;101328.88;102449;1267;98117;-68
2024/01/31 08:52:48;;;;;;;29.70;21.20;;;;;;;5.17;73.95;101335.10;102574;1267;110351;-68
2024/01/31 08:55:16;;;;;;;28.70;20.20;;;;;;;5.17;73.80;101337.17;102472;1267;109397;-68
2024/01/31 08:57:43;;;;;;;32.30;21.00;;;;;;;5.19;73.91;101336.32;102384;1267;139141;-69
2024/01/31 09:00:13;;;;;;;34.40;21.70;;;;;;;5.21;74.00;101326.88;102451;1269;108827;-69
2024/01/31 09:02:40;;;;;;;37.00;22.40;;;;;;;5.28;74.10;101335.54;102654;1267;139161;-68
2024/01/31 09:05:10;;;;;;;37.60;21.10;;;;;;;5.33;73.84;101335.55;102525;1267;111170;-69
2024/01/31 09:07:37;;;;;;;34.90;21.50;;;;;;;5.36;73.76;101334.88;102544;1267;107992;-68
2024/01/31 09:10:06;;;;;;;33.90;21.50;;;;;;;5.38;73.90;101335.27;102546;1267;138692;-70
2024/01/31 09:12:33;;;;;;;31.70;20.60;;;;;;;5.42;73.83;101335.80;102652;1267;108505;-70
2024/01/31 09:15:00;;;;;;;32.70;21.60;;;;;;;5.49;74.02;101332.56;102508;1267;139593;-70
2024/01/31 09:17:27;;;;;;;30.90;20.20;;;;;;;5.54;73.85;101332.93;102586;1267;111777;-72
2024/01/31 09:19:54;;;;;;;29.60;21.10;;;;;;;5.59;74.00;101337.11;102399;1270;108329;-72
2024/01/31 09:22:21;;;;;;;32.00;20.40;;;;;;;5.67;74.05;101336.11;102415;1267;139809;-72
2024/01/31 09:24:48;;;;;;;30.00;20.50;;;;;;;5.76;74.10;101339.95;102620;1271;107866;-72
2024/01/31 09:27:16;;;;;;;29.30;20.10;;;;;;;5.83;73.90;101333.09;102374;1267;139808;-71
2024/01/31 09:29:43;;;;;;;31.90;20.70;;;;;;;5.92;74.00;101335.05;102738;1267;111821;-71
2024/01/31 09:32:10;;;;;;;33.80;21.20;;;;;;;6.02;73.71;101333.20;102486;1269;108776;-72
2024/01/31 09:34:37;;;;;;;27.70;20.30;;;;;;;6.10;73.67;101331.84;102433;1267;138666;-72
2024/01/31 09:37:05;;;;;;;27.60;19.40;;;;;;;6.15;73.46;101335.67;102709;1267;106897;-73
2024/01/31 09:39:33;;;;;;;32.30;20.10;;;;;;;6.18;73.43;101331.36;102393;1268;138886;-73
2024/01/31 09:42:00;;;;;;;30.60;20.00;;;;;;;6.21;73.23;101333.43;102573;1267;111354;-72
2024/01/31 09:44:28;;;;;;;31.10;20.40;;;;;;;6.23;73.20;101330.33;102531;1267;107563;-72
2024/01/31 09:46:56;;;;;;;30.60;21.30;;;;;;;6.25;73.17;101327.73;102537;1267;97843;-72
2024/01/31 09:49:24;;;;;;;31.00;20.00;;;;;;;6.28;73.20;101323.45;102469;1267;107558;-73
2024/01/31 09:51:55;;;;;;;33.30;20.70;;;;;;;6.31;73.20;101323.13;102462;1266;138626;-71
2024/01/31 09:54:23;;;;;;;33.50;22.40;;;;;;;6.36;73.13;101324.33;102508;1267;110599;-70
2024/01/31 09:56:49;;;;;;;31.60;20.20;;;;;;;6.39;73.20;101320.88;102445;1267;138770;-72
2024/01/31 09:59:17;;;;;;;29.40;20.60;;;;;;;6.45;73.05;101314.48;102494;1273;98139;-71
2024/01/31 10:01:44;;;;;;;29.10;21.00;;;;;;;6.52;73.24;101318.84;102470;1267;108792;-71
2024/01/31 10:04:12;;;;;;;27.90;19.90;;;;;;;6.56;73.04;101313.13;102858;1272;138723;-70
2024/01/31 10:06:39;;;;;;;29.20;20.40;;;;;;;6.61;72.98;101310.02;102490;1267;112070;-71
2024/01/31 10:09:07;;;;;;;28.60;20.40;;;;;;;6.68;72.79;101305.89;102420;1267;139123;-70
2024/01/31 10:11:34;;;;;;;35.70;20.10;;;;;;;6.84;72.87;101307.63;102531;1267;98382;-70
2024/01/31 10:14:01;;;;;;;30.00;20.30;;;;;;;7.02;72.81;101302.95;102544;1266;107235;-70
2024/01/31 10:16:28;;;;;;;29.30;19.70;;;;;;;7.27;72.66;101302.56;102448;1267;138890;-69
2024/01/31 10:18:55;;;;;;;28.70;18.90;;;;;;;7.57;72.24;101300.08;102539;1267;111783;-70
2024/01/31 10:21:23;;;;;;;31.30;19.80;;;;;;;7.80;71.56;101299.81;102442;1267;138666;-70
2024/01/31 10:23:59;;;;;;;28.80;19.70;;;;;;;7.98;71.24;101299.40;102530;1270;97703;-70
2024/01/31 10:26:26;;;;;;;29.50;19.80;;;;;;;8.14;70.84;101295.67;102623;1267;108172;-69
2024/01/31 10:28:55;;;;;;;30.60;20.60;;;;;;;8.21;70.34;101295.81;102557;1267;97767;-69
2024/01/31 10:31:37;;;;;;;27.40;19.90;;;;;;;8.20;70.04;101292.69;102597;1268;112074;-68
2024/01/31 10:34:06;;;;;;;30.70;20.90;;;;;;;8.20;69.87;101287.67;102543;1267;138078;-69
2024/01/31 10:36:33;;;;;;;29.80;20.10;;;;;;;8.22;69.84;101286.79;102610;1267;98274;-69
2024/01/31 10:39:06;;;;;;;27.20;20.10;;;;;;;8.30;69.97;101280.17;102459;1267;138199;-69
2024/01/31 10:41:34;;;;;;;30.80;20.60;;;;;;;8.37;69.54;101277.90;102596;1267;97813;-69
2024/01/31 10:44:03;;;;;;;32.40;20.80;;;;;;;8.40;69.52;101275.27;102565;1267;111164;-69
2024/01/31 10:46:30;;;;;;;26.20;19.90;;;;;;;8.44;69.62;101274.90;102523;1268;138065;-69
2024/01/31 10:48:57;;;;;;;28.30;20.10;;;;;;;8.46;69.30;101270.56;102572;1267;97941;-69
2024/01/31 10:51:26;;;;;;;33.60;21.50;;;;;;;8.53;69.35;101270.50;102453;1267;137995;-69
2024/01/31 10:53:55;;;;;;;33.20;21.90;;;;;;;8.54;69.16;101259.05;102535;1272;97707;-69
2024/01/31 10:56:25;;;;;;;29.30;20.30;;;;;;;8.57;68.98;101267.35;102942;1268;111627;-69
2024/01/31 10:58:52;;;;;;;31.80;19.60;;;;;;;8.52;68.83;101268.44;102614;1271;138602;-70
2024/01/31 11:01:23;;;;;;;27.80;19.50;;;;;;;8.44;68.96;101263.48;102585;1267;98422;-70
2024/01/31 11:03:51;;;;;;;30.80;19.80;;;;;;;8.40;69.08;101262.45;102434;1270;140267;-69